createdAt,value
2022-10-16T00:02:26.220Z,17.27
2022-10-16T00:04:53.003Z,21.48
2022-10-16T00:07:19.616Z,19.95
2022-10-16T00:09:47.210Z,19.60
2022-10-16T00:12:13.832Z,22.70
2022-10-16T00:14:42.804Z,20.50
2022-10-16T00:17:09.575Z,18.08
2022-10-16T00:19:36.382Z,21.48
2022-10-16T00:22:02.998Z,19.45
2022-10-16T00:24:32.270Z,19.35
2022-10-16T00:26:59.220Z,20.25
2022-10-16T00:29:25.889Z,17.83
2022-10-16T00:31:52.515Z,16.55
2022-10-16T00:34:19.312Z,22.00
2022-10-16T00:36:45.988Z,19.20
2022-10-16T00:39:13.125Z,18.58
2022-10-16T00:41:39.724Z,21.15
2022-10-16T00:44:49.667Z,19.33
2022-10-16T00:47:50.203Z,16.75
2022-10-16T00:50:23.153Z,19.35
2022-10-16T00:52:52.411Z,21.38
2022-10-16T00:55:19.755Z,22.73
2022-10-16T00:57:47.034Z,22.33
2022-10-16T01:00:18.959Z,23.13
2022-10-16T01:02:45.840Z,23.27
2022-10-16T01:05:12.540Z,22.45
2022-10-16T01:08:03.040Z,21.52
2022-10-16T01:10:56.230Z,18.67
2022-10-16T01:13:28.155Z,19.23
2022-10-16T01:16:14.371Z,20.17
2022-10-16T01:18:47.604Z,21.88
2022-10-16T01:21:17.417Z,24.23
2022-10-16T01:23:56.577Z,22.25
2022-10-16T01:26:54.504Z,20.30
2022-10-16T01:30:00.305Z,20.55
2022-10-16T01:32:34.282Z,18.98
2022-10-16T01:35:24.733Z,20.60
2022-10-16T01:37:55.072Z,20.67
2022-10-16T01:40:25.379Z,18.73
2022-10-16T01:43:00.398Z,22.80
2022-10-16T01:45:29.507Z,24.50
2022-10-16T01:47:56.850Z,23.10
2022-10-16T01:50:28.201Z,25.48
2022-10-16T01:52:57.645Z,17.70
2022-10-16T01:55:30.680Z,24.20
2022-10-16T01:57:58.892Z,24.38
2022-10-16T02:00:27.547Z,21.77
2022-10-16T02:02:56.839Z,20.20
2022-10-16T02:05:31.591Z,21.55
2022-10-16T02:08:00.429Z,21.73
2022-10-16T02:10:32.556Z,21.92
2022-10-16T02:13:06.703Z,21.52
2022-10-16T02:15:33.394Z,20.05
2022-10-16T02:18:00.194Z,21.00
2022-10-16T02:20:33.649Z,23.85
2022-10-16T02:23:02.197Z,22.80
2022-10-16T02:25:38.442Z,22.27
2022-10-16T02:28:10.678Z,22.05
2022-10-16T02:30:49.448Z,23.77
2022-10-16T02:35:47.593Z,24.45
2022-10-16T02:38:16.222Z,23.02
2022-10-16T02:40:43.758Z,19.90
2022-10-16T02:43:11.140Z,23.35
2022-10-16T02:45:37.945Z,22.67
2022-10-16T02:48:04.734Z,24.10
2022-10-16T02:50:31.419Z,22.13
2022-10-16T02:52:58.254Z,23.65
2022-10-16T02:55:24.924Z,23.30
2022-10-16T02:57:51.788Z,23.63
2022-10-16T03:00:19.117Z,22.60
2022-10-16T03:02:48.925Z,19.90
2022-10-16T03:05:16.014Z,24.45
2022-10-16T03:07:42.883Z,20.48
2022-10-16T03:10:10.388Z,21.17
2022-10-16T03:12:36.996Z,24.17
2022-10-16T03:15:04.412Z,22.70
2022-10-16T03:17:31.101Z,21.70
2022-10-16T03:19:57.857Z,23.17
2022-10-16T03:22:24.488Z,22.98
2022-10-16T03:24:51.404Z,20.48
2022-10-16T03:27:18.155Z,21.45
2022-10-16T03:29:44.897Z,22.88
2022-10-16T03:32:11.463Z,22.20
2022-10-16T03:34:41.503Z,24.73
2022-10-16T03:37:08.089Z,20.90
2022-10-16T03:39:35.108Z,20.92
2022-10-16T03:42:01.717Z,19.95
2022-10-16T03:44:28.484Z,23.08
2022-10-16T03:46:55.209Z,20.25
2022-10-16T03:49:22.033Z,24.83
2022-10-16T03:51:48.663Z,20.42
2022-10-16T03:54:18.150Z,22.80
2022-10-16T03:56:44.949Z,25.60
2022-10-16T03:59:11.645Z,23.23
2022-10-16T04:01:38.255Z,22.25
2022-10-16T04:04:05.122Z,25.20
2022-10-16T04:06:31.823Z,23.75
2022-10-16T04:08:58.403Z,22.60
2022-10-16T04:11:25.012Z,18.85
2022-10-16T04:13:51.879Z,22.10
2022-10-16T04:16:18.695Z,20.02
2022-10-16T04:18:45.563Z,20.98
2022-10-16T04:21:12.755Z,19.00
2022-10-16T04:23:39.384Z,21.60
2022-10-16T04:26:06.508Z,23.77
2022-10-16T04:28:33.214Z,22.50
2022-10-16T04:31:00.118Z,24.45
2022-10-16T04:33:30.141Z,24.25
2022-10-16T04:36:04.571Z,17.45
2022-10-16T04:38:31.986Z,20.60
2022-10-16T04:40:59.078Z,17.20
2022-10-16T04:43:26.772Z,22.30
2022-10-16T04:45:55.987Z,20.63
2022-10-16T04:48:23.001Z,21.83
2022-10-16T04:50:53.056Z,22.38
2022-10-16T04:53:25.058Z,23.23
2022-10-16T04:55:51.951Z,21.85
2022-10-16T04:58:18.615Z,24.35
2022-10-16T05:00:47.060Z,21.73
2022-10-16T05:03:14.781Z,24.15
2022-10-16T05:05:46.265Z,24.02
2022-10-16T05:08:14.478Z,24.13
2022-10-16T05:10:42.859Z,24.85
2022-10-16T05:13:16.781Z,24.33
2022-10-16T05:15:51.450Z,25.63
2022-10-16T05:18:18.426Z,24.40
2022-10-16T05:20:45.123Z,24.17
2022-10-16T05:25:43.841Z,25.27
2022-10-16T05:28:13.443Z,20.02
2022-10-16T05:30:42.454Z,25.23
2022-10-16T05:33:09.199Z,23.75
2022-10-16T05:35:39.047Z,24.17
2022-10-16T05:38:05.661Z,20.50
2022-10-16T05:40:32.365Z,22.67
2022-10-16T05:42:59.339Z,21.55
2022-10-16T05:45:26.560Z,24.88
2022-10-16T05:47:53.500Z,22.70
2022-10-16T05:50:20.234Z,26.42
2022-10-16T05:52:46.873Z,23.95
2022-10-16T05:55:13.628Z,27.50
2022-10-16T05:57:40.367Z,22.33
2022-10-16T06:00:07.520Z,25.27
2022-10-16T06:02:34.425Z,24.15
2022-10-16T06:05:01.207Z,25.55
2022-10-16T06:07:28.009Z,24.25
2022-10-16T06:09:54.868Z,22.58
2022-10-16T06:12:21.670Z,23.70
2022-10-16T06:14:48.483Z,27.08
2022-10-16T06:17:15.547Z,24.75
2022-10-16T06:19:42.124Z,20.73
2022-10-16T06:22:08.893Z,20.05
2022-10-16T06:24:35.720Z,25.90
2022-10-16T06:27:02.327Z,25.15
2022-10-16T06:29:28.959Z,24.92
2022-10-16T06:31:55.742Z,20.52
2022-10-16T06:34:22.439Z,22.58
2022-10-16T06:36:49.118Z,26.85
2022-10-16T06:39:15.996Z,22.75
2022-10-16T06:41:42.597Z,26.30
2022-10-16T06:44:09.274Z,27.75
2022-10-16T06:46:35.978Z,24.73
2022-10-16T06:49:03.016Z,27.65
2022-10-16T06:51:29.728Z,27.05
2022-10-16T06:54:04.005Z,24.40
2022-10-16T06:56:32.909Z,22.90
2022-10-16T06:59:00.510Z,25.02
2022-10-16T07:01:27.519Z,24.75
2022-10-16T07:03:54.342Z,21.77
2022-10-16T07:06:23.639Z,24.27
2022-10-16T07:08:50.947Z,27.48
2022-10-16T07:11:20.826Z,21.92
2022-10-16T07:13:52.675Z,22.75
2022-10-16T07:16:24.646Z,23.73
2022-10-16T07:18:55.278Z,25.23
2022-10-16T07:21:23.685Z,25.98
2022-10-16T07:23:56.241Z,29.35
2022-10-16T07:26:24.386Z,27.55
2022-10-16T07:28:51.159Z,29.45
2022-10-16T07:31:19.899Z,27.13
2022-10-16T07:36:16.596Z,24.73
2022-10-16T07:38:48.313Z,28.70
2022-10-16T07:41:17.591Z,26.38
2022-10-16T07:43:52.848Z,27.75
2022-10-16T07:46:20.785Z,30.27
2022-10-16T07:48:49.084Z,21.33
2022-10-16T07:51:18.650Z,20.60
2022-10-16T07:53:45.406Z,27.67
2022-10-16T07:56:12.901Z,29.98
2022-10-16T07:58:39.815Z,23.17
2022-10-16T08:01:12.492Z,24.55
2022-10-16T08:03:39.175Z,28.65
2022-10-16T08:06:06.526Z,30.35
2022-10-16T08:08:33.390Z,28.27
2022-10-16T08:11:00.096Z,28.98
2022-10-16T08:13:28.119Z,27.27
2022-10-16T08:15:55.670Z,29.30
2022-10-16T08:18:23.986Z,25.35
2022-10-16T08:20:59.933Z,24.83
2022-10-16T08:23:27.806Z,26.67
2022-10-16T08:25:55.163Z,26.27
2022-10-16T08:28:22.219Z,26.20
2022-10-16T08:30:49.219Z,25.55
2022-10-16T08:33:15.761Z,25.55
2022-10-16T08:35:42.470Z,26.75
2022-10-16T08:38:09.088Z,31.65
2022-10-16T08:40:38.291Z,28.42
2022-10-16T08:43:17.599Z,28.67
2022-10-16T08:46:20.614Z,27.95
2022-10-16T08:48:52.572Z,27.27
2022-10-16T08:51:33.526Z,28.52
2022-10-16T08:54:06.422Z,31.05
2022-10-16T08:56:34.718Z,30.35
2022-10-16T08:59:03.008Z,30.98
2022-10-16T09:01:42.500Z,30.70
2022-10-16T09:04:41.268Z,31.73
2022-10-16T09:07:39.988Z,31.77
2022-10-16T09:10:35.980Z,30.83
2022-10-16T09:13:11.422Z,32.97
2022-10-16T09:15:47.906Z,33.67
2022-10-16T09:18:29.959Z,31.60
2022-10-16T09:21:09.800Z,34.17
2022-10-16T09:23:38.386Z,32.37
2022-10-16T09:26:10.662Z,33.25
2022-10-16T09:28:37.298Z,32.65
2022-10-16T09:31:03.842Z,33.30
2022-10-16T09:33:36.293Z,31.83
2022-10-16T09:36:05.590Z,32.95
2022-10-16T09:38:37.128Z,32.55
2022-10-16T09:41:20.875Z,32.97
2022-10-16T09:44:00.432Z,32.78
2022-10-16T09:46:29.166Z,31.08
2022-10-16T09:49:00.923Z,31.40
2022-10-16T09:51:33.784Z,29.60
2022-10-16T09:54:07.374Z,28.80
2022-10-16T09:56:42.746Z,28.27
2022-10-16T09:59:18.346Z,24.48
2022-10-16T10:01:51.712Z,24.80
2022-10-16T10:04:20.395Z,22.90
2022-10-16T10:06:56.364Z,24.25
2022-10-16T10:09:32.376Z,20.88
2022-10-16T10:12:00.799Z,22.65
2022-10-16T10:14:39.441Z,25.83
2022-10-16T10:17:05.918Z,24.90
2022-10-16T10:19:41.274Z,24.70
2022-10-16T10:22:39.923Z,22.20
2022-10-16T10:25:19.997Z,20.75
2022-10-16T10:27:52.419Z,19.27
2022-10-16T10:30:40.424Z,21.58
2022-10-16T10:34:08.794Z,21.23
2022-10-16T10:36:40.965Z,17.80
2022-10-16T10:39:10.425Z,19.23
2022-10-16T10:41:45.977Z,18.70
2022-10-16T10:44:36.295Z,19.27
2022-10-16T10:47:11.771Z,20.15
2022-10-16T10:49:42.445Z,21.13
2022-10-16T10:52:25.852Z,20.35
2022-10-16T10:55:21.324Z,22.17
2022-10-16T10:58:03.779Z,20.92
2022-10-16T11:00:42.150Z,21.73
2022-10-16T11:03:47.548Z,19.48
2022-10-16T11:06:25.299Z,18.00
2022-10-16T11:08:59.070Z,19.85
2022-10-16T11:11:44.724Z,19.83
2022-10-16T11:14:32.616Z,19.60
2022-10-16T11:17:05.251Z,20.55
2022-10-16T11:19:53.197Z,20.83
2022-10-16T11:25:06.048Z,19.92
2022-10-16T11:27:44.603Z,20.50
2022-10-16T11:30:21.108Z,17.42
2022-10-16T11:32:55.697Z,20.23
2022-10-16T11:35:33.580Z,18.75
2022-10-16T11:38:04.891Z,21.23
2022-10-16T11:40:41.970Z,19.48
2022-10-16T11:43:18.584Z,17.63
2022-10-16T11:45:52.926Z,22.15
2022-10-16T11:48:29.035Z,21.58
2022-10-16T11:51:03.851Z,20.20
2022-10-16T11:53:45.672Z,22.08
2022-10-16T11:56:18.702Z,22.30
2022-10-16T11:58:47.899Z,23.50
2022-10-16T12:01:28.315Z,20.98
2022-10-16T12:04:06.270Z,21.15
2022-10-16T12:06:33.072Z,21.40
2022-10-16T12:09:03.944Z,21.98
2022-10-16T12:11:30.534Z,19.90
2022-10-16T12:14:12.476Z,20.42
2022-10-16T12:16:40.212Z,20.17
2022-10-16T12:19:15.928Z,24.63
2022-10-16T12:21:43.802Z,22.60
2022-10-16T12:24:33.616Z,22.55
2022-10-16T12:27:01.453Z,25.52
2022-10-16T12:29:46.006Z,25.05
2022-10-16T12:32:46.619Z,23.35
2022-10-16T12:35:27.776Z,21.55
2022-10-16T12:37:55.470Z,24.55
2022-10-16T12:40:32.025Z,22.55
2022-10-16T12:42:59.246Z,23.45
2022-10-16T12:45:34.408Z,24.10
2022-10-16T12:48:03.607Z,20.88
2022-10-16T12:50:39.407Z,23.80
2022-10-16T12:53:29.071Z,21.05
2022-10-16T12:55:58.407Z,22.50
2022-10-16T12:59:02.252Z,23.00
2022-10-16T13:01:43.055Z,22.00
2022-10-16T13:04:47.283Z,23.95
2022-10-16T13:07:45.196Z,21.40
2022-10-16T13:13:26.587Z,23.55
2022-10-16T13:16:17.704Z,23.20
2022-10-16T13:19:10.486Z,20.95
2022-10-16T13:21:58.611Z,22.08
2022-10-16T13:27:24.263Z,22.27
2022-10-16T13:30:01.402Z,21.08
2022-10-16T13:32:29.699Z,21.52
2022-10-16T13:34:56.654Z,21.38
2022-10-16T13:37:25.337Z,18.67
2022-10-16T13:39:52.229Z,21.25
2022-10-16T13:42:28.320Z,24.00
2022-10-16T13:44:57.204Z,21.33
2022-10-16T13:47:26.408Z,23.35
2022-10-16T13:50:32.182Z,20.50
2022-10-16T13:53:24.958Z,23.85
2022-10-16T13:56:05.110Z,21.80
2022-10-16T13:58:32.067Z,22.20
2022-10-16T14:01:05.843Z,23.10
2022-10-16T14:03:34.851Z,19.52
2022-10-16T14:06:04.383Z,19.08
2022-10-16T14:08:31.837Z,19.58
2022-10-16T14:11:01.024Z,20.27
2022-10-16T14:13:35.196Z,21.05
2022-10-16T14:16:07.683Z,20.45
2022-10-16T14:18:35.876Z,19.15
2022-10-16T14:23:38.449Z,20.77
2022-10-16T14:26:13.218Z,17.17
2022-10-16T14:28:41.784Z,19.65
2022-10-16T14:31:20.613Z,19.33
2022-10-16T14:33:47.206Z,20.50
2022-10-16T14:36:18.440Z,16.95
2022-10-16T14:39:04.693Z,22.33
2022-10-16T14:41:33.496Z,16.98
2022-10-16T14:44:06.624Z,21.45
2022-10-16T14:46:37.290Z,21.85
2022-10-16T14:49:09.878Z,20.05
2022-10-16T14:51:37.593Z,20.83
2022-10-16T14:54:04.726Z,21.27
2022-10-16T14:56:44.780Z,22.38
2022-10-16T14:59:17.759Z,22.67
2022-10-16T15:01:45.767Z,18.95
2022-10-16T15:04:13.831Z,21.67
2022-10-16T15:06:40.487Z,21.52
2022-10-16T15:09:07.098Z,22.42
2022-10-16T15:11:33.838Z,21.25
2022-10-16T15:14:00.585Z,22.02
2022-10-16T15:16:27.267Z,19.20
2022-10-16T15:18:54.133Z,18.85
2022-10-16T15:21:27.702Z,21.65
2022-10-16T15:23:55.763Z,16.63
2022-10-16T15:26:22.328Z,21.67
2022-10-16T15:28:49.089Z,14.68
2022-10-16T15:31:15.859Z,22.08
2022-10-16T15:33:42.412Z,20.90
2022-10-16T15:36:09.153Z,16.33
2022-10-16T15:38:35.850Z,19.60
2022-10-16T15:41:02.411Z,19.48
2022-10-16T15:43:30.010Z,20.40
2022-10-16T15:46:01.653Z,19.63
2022-10-16T15:48:29.409Z,23.88
2022-10-16T15:50:56.080Z,21.17
2022-10-16T15:53:22.781Z,17.50
2022-10-16T15:55:50.966Z,16.88
2022-10-16T15:58:17.891Z,18.67
2022-10-16T16:00:44.520Z,20.50
2022-10-16T16:03:11.453Z,20.17
2022-10-16T16:05:46.285Z,18.35
2022-10-16T16:08:13.204Z,18.67
2022-10-16T16:10:39.823Z,19.23
2022-10-16T16:13:06.335Z,19.05
2022-10-16T16:15:32.909Z,22.65
2022-10-16T16:17:59.627Z,20.15
2022-10-16T16:20:26.222Z,19.75
2022-10-16T16:22:52.810Z,18.23
2022-10-16T16:25:20.008Z,17.67
2022-10-16T16:27:46.553Z,19.45
2022-10-16T16:30:18.384Z,23.02
2022-10-16T16:32:46.670Z,22.15
2022-10-16T16:35:13.168Z,21.77
2022-10-16T16:37:39.653Z,15.27
2022-10-16T16:40:06.882Z,19.52
2022-10-16T16:42:33.473Z,17.27
2022-10-16T16:45:00.088Z,20.35
2022-10-16T16:47:27.102Z,20.45
2022-10-16T16:49:53.901Z,21.25
2022-10-16T16:52:20.572Z,24.15
2022-10-16T16:54:53.005Z,20.40
2022-10-16T16:57:21.178Z,20.15
2022-10-16T16:59:48.167Z,19.75
2022-10-16T17:02:16.311Z,20.02
2022-10-16T17:04:42.887Z,22.98
2022-10-16T17:07:09.615Z,23.60
2022-10-16T17:09:36.301Z,19.70
2022-10-16T17:12:02.848Z,21.73
2022-10-16T17:14:29.433Z,22.88
2022-10-16T17:16:56.344Z,19.65
2022-10-16T17:19:22.905Z,19.63
2022-10-16T17:21:50.825Z,23.05
2022-10-16T17:24:18.687Z,19.58
2022-10-16T17:26:49.033Z,22.58
2022-10-16T17:29:18.933Z,23.98
2022-10-16T17:31:46.594Z,20.60
2022-10-16T17:34:13.419Z,19.00
2022-10-16T17:36:44.479Z,22.10
2022-10-16T17:39:13.288Z,21.63
2022-10-16T17:41:40.214Z,19.02
2022-10-16T17:44:07.916Z,20.83
2022-10-16T17:46:38.325Z,20.80
2022-10-16T17:49:07.947Z,21.33
2022-10-16T17:51:34.628Z,19.75
2022-10-16T17:54:02.399Z,19.45
2022-10-16T17:56:30.469Z,20.17
2022-10-16T17:59:00.044Z,23.40
2022-10-16T18:01:35.583Z,21.80
2022-10-16T18:04:07.508Z,22.90
2022-10-16T18:06:34.662Z,19.63
2022-10-16T18:09:03.057Z,21.40
2022-10-16T18:11:29.879Z,22.38
2022-10-16T18:13:58.351Z,22.33
2022-10-16T18:16:26.747Z,21.90
2022-10-16T18:18:54.624Z,21.00
2022-10-16T18:21:21.270Z,21.45
2022-10-16T18:23:51.062Z,22.92
2022-10-16T18:26:18.739Z,22.98
2022-10-16T18:28:45.519Z,20.10
2022-10-16T18:31:14.517Z,23.23
2022-10-16T18:33:47.994Z,22.10
2022-10-16T18:36:15.472Z,23.00
2022-10-16T18:38:42.000Z,23.33
2022-10-16T18:41:08.868Z,23.77
2022-10-16T18:43:37.008Z,22.88
2022-10-16T18:46:10.251Z,23.50
2022-10-16T18:48:37.910Z,25.05
2022-10-16T18:51:22.790Z,23.63
2022-10-16T18:53:52.009Z,22.25
2022-10-16T18:56:21.012Z,22.48
2022-10-16T18:58:49.134Z,22.15
2022-10-16T19:01:21.041Z,24.80
2022-10-16T19:03:48.900Z,22.13
2022-10-16T19:06:16.943Z,22.27
2022-10-16T19:08:44.298Z,23.33
2022-10-16T19:11:21.979Z,20.85
2022-10-16T19:13:49.235Z,22.33
2022-10-16T19:16:21.252Z,23.15
2022-10-16T19:18:53.360Z,21.63
2022-10-16T19:21:21.011Z,23.75
2022-10-16T19:23:59.032Z,22.17
2022-10-16T19:26:27.077Z,21.55
2022-10-16T19:28:58.417Z,23.00
2022-10-16T19:31:27.094Z,22.55
2022-10-16T19:33:56.124Z,21.40
2022-10-16T19:36:25.326Z,26.75
2022-10-16T19:38:57.717Z,26.33
2022-10-16T19:41:25.344Z,20.27
2022-10-16T19:43:52.723Z,20.75
2022-10-16T19:46:22.028Z,22.70
2022-10-16T19:48:49.187Z,24.67
2022-10-16T19:51:18.819Z,24.20
2022-10-16T19:53:46.855Z,23.35
2022-10-16T19:56:18.075Z,24.60
2022-10-16T19:58:46.358Z,25.60
2022-10-16T20:01:15.326Z,23.92
2022-10-16T20:03:46.806Z,26.08
2022-10-16T20:06:14.808Z,27.70
2022-10-16T20:08:44.342Z,28.35
2022-10-16T20:11:32.794Z,24.50
2022-10-16T20:13:59.832Z,26.55
2022-10-16T20:16:28.131Z,25.85
2022-10-16T20:18:55.737Z,23.88
2022-10-16T20:21:31.357Z,28.38
2022-10-16T20:24:00.843Z,24.58
2022-10-16T20:26:27.676Z,24.98
2022-10-16T20:28:54.904Z,25.27
2022-10-16T20:31:25.135Z,26.73
2022-10-16T20:33:53.848Z,24.63
2022-10-16T20:38:47.749Z,24.00
2022-10-16T20:41:15.797Z,25.55
2022-10-16T20:43:45.155Z,24.60
2022-10-16T20:46:14.379Z,25.08
2022-10-16T20:48:47.284Z,26.00
2022-10-16T20:51:15.896Z,23.60
2022-10-16T20:53:44.167Z,23.95
2022-10-16T20:56:12.570Z,24.52
2022-10-16T20:58:40.631Z,22.25
2022-10-16T21:01:09.328Z,24.30
2022-10-16T21:06:10.327Z,26.80
2022-10-16T21:08:39.282Z,24.92
2022-10-16T21:11:27.457Z,23.25
2022-10-16T21:13:56.191Z,22.90
2022-10-16T21:16:23.565Z,26.75
2022-10-16T21:18:50.442Z,24.50
2022-10-16T21:21:38.391Z,24.52
2022-10-16T21:24:06.925Z,26.88
2022-10-16T21:26:33.704Z,25.88
2022-10-16T21:29:06.829Z,22.23
2022-10-16T21:31:34.910Z,24.75
2022-10-16T21:34:01.947Z,26.27
2022-10-16T21:36:31.679Z,23.23
2022-10-16T21:39:02.686Z,23.15
2022-10-16T21:41:29.763Z,24.48
2022-10-16T21:43:57.590Z,23.33
2022-10-16T21:46:28.050Z,24.38
2022-10-16T21:49:00.479Z,25.15
2022-10-16T21:51:34.039Z,23.17
2022-10-16T21:54:01.824Z,24.27
2022-10-16T21:56:29.214Z,23.92
2022-10-16T21:58:56.525Z,23.42
2022-10-16T22:01:25.873Z,25.80
2022-10-16T22:03:52.710Z,26.20
2022-10-16T22:08:50.234Z,22.33
2022-10-16T22:11:24.988Z,23.15
2022-10-16T22:13:56.695Z,22.70
2022-10-16T22:16:26.917Z,25.27
2022-10-16T22:18:55.761Z,23.90
2022-10-16T22:21:23.005Z,22.15
2022-10-16T22:23:50.326Z,28.05
2022-10-16T22:26:17.218Z,26.17
2022-10-16T22:28:44.215Z,26.65
2022-10-16T22:31:13.877Z,25.60
2022-10-16T22:33:41.663Z,25.38
2022-10-16T22:36:11.299Z,25.73
2022-10-16T22:38:38.680Z,24.65
2022-10-16T22:41:12.191Z,25.48
2022-10-16T22:43:43.082Z,24.77
2022-10-16T22:46:21.211Z,23.55
2022-10-16T22:48:48.449Z,26.25
2022-10-16T22:51:17.366Z,26.63
2022-10-16T22:53:48.014Z,24.13
2022-10-16T22:56:17.904Z,25.20
2022-10-16T22:58:44.973Z,24.77
2022-10-16T23:01:16.945Z,24.30
2022-10-16T23:03:43.783Z,25.80
2022-10-16T23:06:10.764Z,27.58
2022-10-16T23:08:37.796Z,24.40
2022-10-16T23:11:09.530Z,24.48
2022-10-16T23:13:38.440Z,25.80
2022-10-16T23:16:06.617Z,25.40
2022-10-16T23:18:34.680Z,25.20
2022-10-16T23:21:06.531Z,28.47
2022-10-16T23:23:37.684Z,24.00
2022-10-16T23:26:19.051Z,23.02
2022-10-16T23:28:48.627Z,25.58
2022-10-16T23:31:19.017Z,25.05
2022-10-16T23:33:46.071Z,29.20
2022-10-16T23:36:15.364Z,26.42
2022-10-16T23:38:43.463Z,26.50
2022-10-16T23:41:11.264Z,27.52
2022-10-16T23:43:41.212Z,26.30
2022-10-16T23:46:10.353Z,27.85
2022-10-16T23:48:40.902Z,27.40
2022-10-16T23:51:09.011Z,25.45
2022-10-16T23:53:35.874Z,30.77
2022-10-16T23:56:02.482Z,24.25
2022-10-16T23:58:30.303Z,27.13
